Time;durP1;ratioP1;P1;durP2;ratioP2;P2;SDS_P1;SDS_P2;PMS_P1;PMS_P2;Temp;Humidity;BMP_temperature;BMP_pressure;BME280_temperature;BME280_humidity;BME280_pressure;Samples;Min_cycle;Max_cycle;Signal;HPM_P1;HPM_P2
2023/06/21 00:01:35;;;;;;;;;7.33;7.00;;;;;23.25;59.46;100873.09;5057478;28;45390;-71
2023/06/21 00:04:00;;;;;;;;;11.67;8.33;;;;;23.39;59.78;100901.81;5056626;28;45441;-72
2023/06/21 00:06:29;;;;;;;;;9.33;7.33;;;;;23.39;59.61;100900.94;5068278;28;47282;-71
2023/06/21 00:08:57;;;;;;;;;11.33;9.00;;;;;23.28;59.85;100891.66;5074431;28;45473;-72
2023/06/21 00:11:24;;;;;;;;;12.67;11.33;;;;;23.27;59.72;100892.56;5076534;27;45405;-71
2023/06/21 00:13:52;;;;;;;;;10.33;9.00;;;;;23.17;60.17;100875.25;5074585;28;45872;-71
2023/06/21 00:16:19;;;;;;;;;10.33;8.67;;;;;23.28;60.32;100894.31;5077325;27;46539;-72
2023/06/21 00:18:44;;;;;;;;;9.00;8.00;;;;;23.26;60.61;100901.53;5074354;27;45648;-71
2023/06/21 00:21:10;;;;;;;;;9.00;9.00;;;;;23.05;60.57;100895.41;5073824;28;45836;-72
2023/06/21 00:23:36;;;;;;;;;8.33;7.67;;;;;22.89;60.50;100870.34;5073997;28;45581;-71
2023/06/21 00:26:01;;;;;;;;;7.33;7.00;;;;;23.05;60.41;100889.22;5071907;27;47685;-72
2023/06/21 00:28:27;;;;;;;;;10.00;9.00;;;;;23.04;60.49;100876.78;5074239;27;45872;-72
2023/06/21 00:30:53;;;;;;;;;8.00;8.00;;;;;23.06;60.52;100882.91;5077851;27;45449;-72
2023/06/21 00:33:19;;;;;;;;;7.00;7.00;;;;;23.16;60.46;100905.59;5074098;27;45729;-74
2023/06/21 00:35:44;;;;;;;;;7.67;7.67;;;;;23.11;60.32;100886.22;5074055;27;45567;-71
2023/06/21 00:38:12;;;;;;;;;8.00;7.00;;;;;23.08;60.21;100891.72;5074065;28;45806;-71
2023/06/21 00:40:40;;;;;;;;;9.67;7.00;;;;;23.01;60.03;100880.47;5074259;28;45401;-71
2023/06/21 00:43:06;;;;;;;;;8.67;7.00;;;;;22.92;60.31;100858.63;5077548;27;45362;-70
2023/06/21 00:45:38;;;;;;;;;7.33;7.33;;;;;22.81;60.13;100846.69;5077770;27;45627;-71
2023/06/21 00:48:04;;;;;;;;;8.00;6.33;;;;;23.12;60.32;100892.47;5073719;27;45324;-71
2023/06/21 00:50:29;;;;;;;;;6.67;6.67;;;;;23.18;59.93;100903.72;5074411;27;45472;-71
2023/06/21 00:52:55;;;;;;;;;6.00;6.00;;;;;23.20;59.80;100896.47;5074187;27;45470;-70
2023/06/21 00:55:23;;;;;;;;;6.33;5.33;;;;;23.04;60.25;100869.66;5073910;27;46077;-70
2023/06/21 00:57:49;;;;;;;;;8.00;6.33;;;;;23.28;59.85;100898.81;5072367;28;45861;-71
2023/06/21 01:00:22;;;;;;;;;6.67;5.67;;;;;23.20;59.50;100885.78;5076693;27;45548;-71
2023/06/21 01:02:51;;;;;;;;;6.00;6.00;;;;;23.32;59.58;100912.88;5072234;28;45480;-71
2023/06/21 01:05:17;;;;;;;;;7.00;5.67;;;;;23.28;59.63;100902.34;5073849;28;47535;-70
2023/06/21 01:07:52;;;;;;;;;6.00;5.67;;;;;23.28;59.26;100907.69;5073648;28;45459;-72
2023/06/21 01:10:17;;;;;;;;;4.33;4.33;;;;;23.36;59.44;100923.34;5072489;28;45718;-71
2023/06/21 01:13:04;;;;;;;;;7.67;5.67;;;;;23.37;59.75;100933.09;5071785;28;46019;-72
2023/06/21 01:15:37;;;;;;;;;12.67;11.33;;;;;23.37;59.73;100933.09;5073625;28;45812;-72
2023/06/21 01:18:06;;;;;;;;;9.00;6.00;;;;;23.36;59.33;100935.84;5072161;28;45378;-72
2023/06/21 01:20:34;;;;;;;;;8.00;4.67;;;;;23.29;59.33;100927.25;5075308;28;45311;-71
2023/06/21 01:23:15;;;;;;;;;5.67;5.67;;;;;23.36;59.53;100952.75;5076944;28;45497;-72
2023/06/21 01:26:14;;;;;;;;;5.00;4.00;;;;;23.35;59.53;100948.34;5078179;28;46322;-71
2023/06/21 01:29:11;;;;;;;;;7.33;5.67;;;;;23.28;59.63;100953.13;5074649;28;45776;-71
2023/06/21 01:31:40;;;;;;;;;5.00;5.00;;;;;23.28;59.77;100941.56;5073665;28;45452;-71
2023/06/21 01:34:08;;;;;;;;;6.33;4.00;;;;;23.24;59.50;100935.47;5073274;28;45369;-72
2023/06/21 01:36:44;;;;;;;;;4.00;4.00;;;;;23.29;59.33;100940.63;5072995;28;45561;-73
2023/06/21 01:39:10;;;;;;;;;5.00;5.00;;;;;23.33;59.82;100952.03;5072007;28;45397;-72
2023/06/21 01:41:37;;;;;;;;;7.33;5.33;;;;;23.07;59.75;100920.25;5076933;28;45475;-72
2023/06/21 01:44:05;;;;;;;;;5.67;4.67;;;;;23.20;59.78;100955.28;5077985;28;45401;-70
2023/06/21 01:46:31;;;;;;;;;8.00;5.00;;;;;23.21;59.87;100962.38;5077838;28;45494;-73
2023/06/21 01:49:00;;;;;;;;;8.00;8.00;;;;;23.15;59.99;100954.63;5075610;28;45301;-71
2023/06/21 01:51:26;;;;;;;;;7.67;7.67;;;;;23.17;59.79;100962.56;5073199;28;45410;-70
2023/06/21 01:53:55;;;;;;;;;12.67;10.33;;;;;23.12;59.91;100951.25;5076217;28;45620;-72
2023/06/21 01:56:23;;;;;;;;;10.00;10.00;;;;;23.22;59.86;100965.91;5076928;28;46028;-71
2023/06/21 01:58:49;;;;;;;;;10.33;9.00;;;;;23.24;59.76;100974.72;5072599;28;45429;-70
2023/06/21 02:01:18;;;;;;;;;10.00;10.00;;;;;23.24;59.92;100977.38;5073077;28;45940;-70
2023/06/21 02:03:51;;;;;;;;;17.00;10.33;;;;;23.20;60.28;100976.66;5073284;28;45504;-70
2023/06/21 02:06:20;;;;;;;;;14.00;11.67;;;;;23.22;60.05;100980.13;5072619;28;46160;-71
2023/06/21 02:08:49;;;;;;;;;14.00;11.33;;;;;23.21;60.01;100981.06;5072533;28;45417;-71
2023/06/21 02:11:15;;;;;;;;;9.00;9.00;;;;;23.26;59.40;100991.53;5072875;27;45729;-72
2023/06/21 02:13:41;;;;;;;;;10.00;7.00;;;;;23.25;59.89;100992.47;5071309;28;45799;-72
2023/06/21 02:16:07;;;;;;;;;8.33;6.33;;;;;23.23;59.50;100978.31;5072615;27;45544;-70
2023/06/21 02:18:32;;;;;;;;;6.00;6.00;;;;;23.16;59.41;100958.16;5071330;27;45409;-71
2023/06/21 02:20:58;;;;;;;;;6.00;5.00;;;;;23.25;59.51;100982.66;5073357;28;45467;-71
2023/06/21 02:23:24;;;;;;;;;6.67;4.67;;;;;23.04;60.02;100947.13;5072884;27;45359;-70
2023/06/21 02:25:50;;;;;;;;;5.33;4.33;;;;;23.18;60.02;100970.53;5079487;27;46403;-72
2023/06/21 02:28:16;;;;;;;;;5.00;5.00;;;;;23.15;60.09;100970.66;5075731;27;45813;-71
2023/06/21 02:30:42;;;;;;;;;5.33;5.00;;;;;23.16;59.93;100971.50;5076654;27;45421;-71
2023/06/21 02:33:08;;;;;;;;;4.00;4.00;;;;;23.18;60.14;100977.66;5079008;27;45353;-71
2023/06/21 02:35:33;;;;;;;;;7.33;4.33;;;;;23.19;59.83;100980.28;5080379;27;45286;-72
2023/06/21 02:38:00;;;;;;;;;5.67;5.33;;;;;23.18;59.99;100970.53;5076070;27;45873;-71
2023/06/21 02:40:26;;;;;;;;;4.67;4.67;;;;;23.09;60.00;100954.94;5075525;28;45441;-73
2023/06/21 02:42:53;;;;;;;;;6.00;5.33;;;;;23.01;60.19;100952.59;5077175;28;45714;-71
2023/06/21 02:45:18;;;;;;;;;5.00;3.67;;;;;22.95;60.37;100952.00;5080366;27;46412;-71
2023/06/21 02:47:44;;;;;;;;;4.00;4.00;;;;;23.00;60.64;100969.56;5080361;27;45460;-71
2023/06/21 02:50:10;;;;;;;;;5.67;5.00;;;;;23.06;60.49;100981.75;5080296;27;45432;-71
2023/06/21 02:52:37;;;;;;;;;4.00;4.00;;;;;22.98;60.26;100966.09;5079863;27;45572;-72
2023/06/21 02:55:04;;;;;;;;;3.67;3.00;;;;;22.99;60.83;100988.31;5078716;27;45710;-72
2023/06/21 02:57:30;;;;;;;;;4.00;4.00;;;;;23.00;60.63;100984.72;5076298;27;45913;-72
2023/06/21 02:59:59;;;;;;;;;5.00;5.00;;;;;23.02;60.62;100986.41;5075819;28;45809;-72
2023/06/21 03:02:33;;;;;;;;;6.67;4.67;;;;;22.97;60.61;100971.47;5075734;27;45408;-72
2023/06/21 03:04:59;;;;;;;;;7.00;4.00;;;;;22.92;60.91;100974.38;5073695;27;47240;-71
2023/06/21 03:07:29;;;;;;;;;4.67;4.00;;;;;22.93;60.65;100988.59;5075911;28;45256;-71
2023/06/21 03:09:55;;;;;;;;;3.67;3.67;;;;;22.90;60.74;100989.59;5080088;28;45383;-70
2023/06/21 03:12:21;;;;;;;;;5.67;5.33;;;;;22.94;60.91;101001.84;5080312;28;45345;-71
2023/06/21 03:14:46;;;;;;;;;7.00;5.67;;;;;22.88;61.67;100994.13;5076891;28;45621;-70
2023/06/21 03:17:12;;;;;;;;;4.33;4.33;;;;;22.86;61.56;100996.88;5075090;28;45450;-70
2023/06/21 03:19:37;;;;;;;;;6.33;4.67;;;;;22.77;61.24;100980.41;5075015;28;46344;-72
2023/06/21 03:22:03;;;;;;;;;5.00;5.00;;;;;22.82;61.80;100997.06;5077189;28;45476;-70
2023/06/21 03:24:32;;;;;;;;;5.00;5.00;;;;;22.75;61.92;100993.81;5075190;28;45459;-71
2023/06/21 03:26:58;;;;;;;;;3.67;3.67;;;;;22.59;62.40;100982.06;5075434;28;45372;-70
2023/06/21 03:29:24;;;;;;;;;10.00;5.33;;;;;22.57;62.24;100994.66;5077767;28;45474;-70
2023/06/21 03:31:49;;;;;;;;;6.33;5.00;;;;;22.65;62.24;101009.38;5076202;28;45989;-70
2023/06/21 03:34:15;;;;;;;;;3.67;3.67;;;;;22.54;62.11;100990.31;5073253;28;45536;-70
2023/06/21 03:36:40;;;;;;;;;6.33;5.33;;;;;22.44;62.68;100988.94;5074656;28;45420;-70
2023/06/21 03:39:06;;;;;;;;;6.00;5.33;;;;;22.44;62.56;101008.50;5074976;28;45521;-71
2023/06/21 03:41:32;;;;;;;;;7.00;6.33;;;;;22.36;63.26;101004.44;5073898;28;45392;-70
2023/06/21 03:43:58;;;;;;;;;4.00;4.00;;;;;22.31;63.24;101003.78;5073483;28;46476;-71
2023/06/21 03:46:24;;;;;;;;;4.67;4.67;;;;;22.36;62.90;101005.31;5074324;28;45561;-70
2023/06/21 03:48:51;;;;;;;;;4.33;4.33;;;;;22.42;62.88;101010.38;5073322;28;45764;-71
2023/06/21 03:51:18;;;;;;;;;6.00;6.00;;;;;22.45;62.69;101020.06;5078354;28;45524;-70
2023/06/21 03:53:43;;;;;;;;;4.33;4.33;;;;;22.52;62.50;101034.00;5074089;28;45437;-70
2023/06/21 03:56:09;;;;;;;;;5.33;5.00;;;;;22.42;62.95;101037.06;5074895;28;45426;-71
2023/06/21 03:58:35;;;;;;;;;5.00;4.67;;;;;22.48;63.23;101051.94;5073413;28;45876;-70
2023/06/21 04:01:00;;;;;;;;;5.00;5.00;;;;;22.43;62.66;101038.81;5074593;28;45528;-70
2023/06/21 04:03:26;;;;;;;;;5.33;5.00;;;;;22.58;62.40;101058.63;5074272;28;46286;-71
2023/06/21 04:05:52;;;;;;;;;4.67;4.00;;;;;22.63;62.56;101053.94;5074408;28;45463;-71
2023/06/21 04:08:18;;;;;;;;;5.00;5.00;;;;;22.61;62.20;101044.28;5073353;28;45431;-70
2023/06/21 04:10:43;;;;;;;;;8.00;7.00;;;;;22.65;62.08;101049.41;5074484;27;45570;-71
2023/06/21 04:13:09;;;;;;;;;4.67;4.00;;;;;22.67;62.02;101049.34;5077089;27;46257;-71
2023/06/21 04:15:35;;;;;;;;;6.67;4.33;;;;;22.78;62.43;101062.22;5075292;27;45395;-70
2023/06/21 04:18:01;;;;;;;;;5.67;5.33;;;;;22.69;62.60;101071.53;5074706;27;45459;-70
2023/06/21 04:20:27;;;;;;;;;5.33;5.00;;;;;22.65;62.51;101064.56;5077888;27;45535;-70
2023/06/21 04:22:55;;;;;;;;;7.00;7.00;;;;;22.77;62.40;101087.19;5075063;27;46066;-72
2023/06/21 04:25:24;;;;;;;;;5.33;5.33;;;;;22.70;62.13;101072.38;5076295;27;45407;-71
2023/06/21 04:27:50;;;;;;;;;8.67;7.33;;;;;22.69;62.50;101071.53;5077314;28;45323;-71
2023/06/21 04:30:16;;;;;;;;;10.00;7.67;;;;;22.70;62.73;101093.75;5077333;28;45454;-70
2023/06/21 04:32:45;;;;;;;;;6.67;5.33;;;;;22.51;63.07;101086.50;5073776;28;45803;-71
2023/06/21 04:35:14;;;;;;;;;7.33;5.33;;;;;22.55;63.21;101095.28;5074102;27;45431;-71
2023/06/21 04:37:44;;;;;;;;;5.67;5.67;;;;;22.60;63.23;101107.47;5074040;27;45400;-71
2023/06/21 04:40:17;;;;;;;;;5.00;5.00;;;;;22.62;63.04;101102.09;5073007;28;45524;-72
2023/06/21 04:42:46;;;;;;;;;6.33;6.33;;;;;22.75;62.71;101121.13;5077391;27;46155;-70
2023/06/21 04:45:14;;;;;;;;;4.33;4.33;;;;;22.80;62.55;101121.78;5073631;28;46108;-71
2023/06/21 04:47:46;;;;;;;;;5.00;5.00;;;;;22.84;62.55;101134.06;5073305;27;45364;-71
2023/06/21 04:50:12;;;;;;;;;4.00;4.00;;;;;22.75;62.70;101129.97;5076072;27;45869;-71
2023/06/21 04:52:38;;;;;;;;;5.33;5.33;;;;;22.85;62.78;101136.69;5077098;28;45552;-71
2023/06/21 04:55:07;;;;;;;;;8.67;6.00;;;;;22.84;62.58;101123.38;5076826;28;45446;-71
2023/06/21 04:57:34;;;;;;;;;6.67;6.00;;;;;22.86;62.42;101125.06;5073774;27;45463;-71
2023/06/21 05:00:06;;;;;;;;;10.00;5.33;;;;;22.88;62.86;101140.16;5072103;27;45778;-71
2023/06/21 05:02:32;;;;;;;;;6.00;6.00;;;;;22.73;63.84;101141.66;5068871;28;45699;-70
2023/06/21 05:04:57;;;;;;;;;6.00;6.00;;;;;22.68;63.52;101147.19;5075701;27;45373;-70
2023/06/21 05:07:23;;;;;;;;;6.00;6.00;;;;;22.70;62.98;101142.66;5078080;27;45321;-71
2023/06/21 05:09:49;;;;;;;;;8.67;5.33;;;;;22.74;63.11;101157.63;5076805;28;45385;-71
2023/06/21 05:12:14;;;;;;;;;8.33;6.67;;;;;22.71;63.32;101151.53;5073314;28;45818;-71
2023/06/21 05:14:40;;;;;;;;;9.67;8.67;;;;;22.73;63.06;101160.34;5073400;27;45444;-71
2023/06/21 05:17:06;;;;;;;;;5.67;4.67;;;;;22.76;62.90;101154.91;5073431;27;45488;-70
2023/06/21 05:19:31;;;;;;;;;7.00;6.00;;;;;22.84;62.74;101156.31;5072465;28;45531;-71
2023/06/21 05:21:57;;;;;;;;;5.33;4.00;;;;;23.00;62.15;101172.59;5073032;27;46605;-72
2023/06/21 05:24:23;;;;;;;;;8.00;6.00;;;;;23.12;62.19;101175.66;5073092;27;45602;-71
2023/06/21 05:26:48;;;;;;;;;8.67;7.33;;;;;23.14;61.70;101153.28;5072291;28;45743;-72
2023/06/21 05:29:14;;;;;;;;;7.67;6.33;;;;;23.11;61.62;101142.72;5077054;28;45523;-71
2023/06/21 05:31:43;;;;;;;;;5.67;5.67;;;;;23.22;61.51;101161.81;5075886;27;46137;-71
2023/06/21 05:34:10;;;;;;;;;6.33;5.67;;;;;23.33;61.42;101164.03;5073445;27;45421;-71
2023/06/21 05:36:36;;;;;;;;;9.33;7.00;;;;;23.31;61.18;101143.66;5076048;27;45441;-71
2023/06/21 05:39:03;;;;;;;;;6.00;5.33;;;;;23.49;60.99;101157.06;5076226;28;45588;-71
2023/06/21 05:41:28;;;;;;;;;8.00;8.00;;;;;23.57;60.92;101147.81;5076981;27;46638;-72
2023/06/21 05:43:54;;;;;;;;;9.33;5.00;;;;;23.75;60.23;101163.03;5077332;27;45223;-71
2023/06/21 05:46:19;;;;;;;;;5.33;5.00;;;;;23.84;60.27;101161.75;5077508;27;45838;-71
2023/06/21 05:48:45;;;;;;;;;6.00;5.33;;;;;23.89;60.42;101165.97;5076305;28;45504;-71
2023/06/21 05:51:10;;;;;;;;;6.33;6.00;;;;;23.98;59.63;101166.47;5074672;27;45692;-72
2023/06/21 05:53:44;;;;;;;;;7.00;6.00;;;;;24.06;59.80;101158.91;5071763;28;45449;-72
2023/06/21 05:56:10;;;;;;;;;5.00;5.00;;;;;24.11;59.42;101151.56;5075406;28;45453;-72
2023/06/21 05:58:45;;;;;;;;;6.00;5.00;;;;;24.13;59.32;101150.56;5073679;27;45862;-71
2023/06/21 06:01:11;;;;;;;;;10.25;7.25;;;;;24.21;58.96;101150.19;5075878;27;46412;-72
2023/06/21 06:03:37;;;;;;;;;5.00;5.00;;;;;24.10;59.03;101123.06;5074555;28;45691;-72
2023/06/21 06:06:02;;;;;;;;;6.00;5.67;;;;;24.36;58.33;101153.03;5076538;28;45474;-70
2023/06/21 06:08:28;;;;;;;;;5.67;5.67;;;;;24.47;58.29;101162.31;5076619;28;45660;-71
2023/06/21 06:10:54;;;;;;;;;6.33;5.33;;;;;24.48;58.06;101155.16;5075960;28;46428;-71
2023/06/21 06:13:19;;;;;;;;;6.33;6.00;;;;;24.60;58.03;101161.69;5076507;27;45923;-71
2023/06/21 06:15:45;;;;;;;;;7.67;6.00;;;;;24.57;57.87;101143.13;5076430;28;46252;-71
2023/06/21 06:18:10;;;;;;;;;7.75;6.75;;;;;24.68;57.46;101155.03;5077625;28;45370;-71
2023/06/21 06:20:36;;;;;;;;;7.00;7.00;;;;;24.73;57.34;101150.31;5075903;28;46641;-71
2023/06/21 06:23:04;;;;;;;;;8.75;7.50;;;;;24.87;57.04;101159.47;5079004;28;45555;-72
2023/06/21 06:25:30;;;;;;;;;9.00;8.33;;;;;24.91;57.14;101167.22;5080838;28;45860;-72
2023/06/21 06:27:56;;;;;;;;;8.00;7.67;;;;;24.88;57.17;101170.06;5096686;27;45389;-72
2023/06/21 06:30:22;;;;;;;;;6.75;6.00;;;;;24.62;57.01;101115.16;5078718;28;46366;-71
2023/06/21 06:32:47;;;;;;;;;10.00;7.67;;;;;24.97;56.62;101168.75;5078791;27;45731;-71
2023/06/21 06:35:13;;;;;;;;;8.75;8.00;;;;;25.04;57.04;101177.34;5080460;28;45387;-71
2023/06/21 06:37:39;;;;;;;;;9.00;7.25;;;;;25.11;56.75;101182.31;5080555;28;45391;-71
2023/06/21 06:40:05;;;;;;;;;9.00;7.25;;;;;25.16;55.97;101174.88;5079264;28;45317;-72
2023/06/21 06:42:31;;;;;;;;;8.00;6.75;;;;;25.08;55.96;101146.75;5075796;28;45530;-71
2023/06/21 06:44:57;;;;;;;;;7.50;7.00;;;;;25.29;55.89;101174.28;5076004;28;45384;-71
2023/06/21 06:47:23;;;;;;;;;7.50;7.50;;;;;25.37;55.89;101180.97;5075736;28;45425;-72
2023/06/21 06:49:48;;;;;;;;;9.00;6.50;;;;;25.44;55.24;101184.19;5077548;28;46113;-72
2023/06/21 06:52:14;;;;;;;;;8.50;8.00;;;;;25.52;55.12;101187.31;5078186;28;45610;-72
2023/06/21 06:54:40;;;;;;;;;8.25;6.25;;;;;25.44;54.90;101172.59;5077448;27;45332;-72
2023/06/21 06:57:10;;;;;;;;;9.25;7.75;;;;;25.53;55.00;101180.13;5067406;28;45408;-73
2023/06/21 06:59:35;;;;;;;;;8.00;6.50;;;;;25.58;54.58;101191.50;5059664;28;45416;-72
2023/06/21 07:02:01;;;;;;;;;9.00;8.25;;;;;25.64;54.65;101191.16;5059737;28;45397;-71
2023/06/21 07:04:28;;;;;;;;;9.75;8.00;;;;;25.69;53.63;101199.81;5056325;28;45466;-71
2023/06/21 07:06:54;;;;;;;;;9.75;8.50;;;;;25.67;53.29;101200.84;5074444;28;45700;-71
2023/06/21 07:09:20;;;;;;;;;10.00;9.00;;;;;25.57;53.80;101187.94;5073698;28;47698;-70
2023/06/21 07:11:45;;;;;;;;;8.75;6.75;;;;;25.61;53.83;101191.34;5075544;27;45323;-70
2023/06/21 07:14:11;;;;;;;;;11.00;7.75;;;;;25.74;54.05;101189.72;5077676;28;45300;-70
2023/06/21 07:16:41;;;;;;;;;10.00;8.25;;;;;25.80;53.79;101192.06;5076716;28;45508;-70
2023/06/21 07:19:07;;;;;;;;;12.00;8.75;;;;;25.97;52.91;101203.72;5075309;27;46157;-70
2023/06/21 07:21:33;;;;;;;;;9.25;8.00;;;;;25.86;52.45;101196.25;5079050;28;45444;-70
2023/06/21 07:23:59;;;;;;;;;7.00;7.00;;;;;25.96;51.99;101207.34;5079674;27;45398;-71
2023/06/21 07:26:25;;;;;;;;;7.25;7.25;;;;;25.96;52.10;101196.59;5079474;27;45302;-70
2023/06/21 07:28:51;;;;;;;;;9.00;8.25;;;;;26.07;52.00;101194.22;5079331;28;46284;-70
2023/06/21 07:31:17;;;;;;;;;7.00;6.50;;;;;26.11;51.71;101201.16;5079318;27;46133;-70
2023/06/21 07:33:43;;;;;;;;;9.00;6.75;;;;;26.20;51.18;101202.47;5112399;27;45538;-69
2023/06/21 07:36:10;;;;;;;;;7.00;6.25;;;;;26.22;50.97;101204.09;5075105;27;45582;-71
2023/06/21 07:38:36;;;;;;;;;8.00;8.00;;;;;26.37;51.04;101223.00;5071751;28;46410;-71
2023/06/21 07:41:02;;;;;;;;;9.25;7.00;;;;;26.38;50.17;101205.91;5072502;28;45842;-71
2023/06/21 07:43:27;;;;;;;;;7.50;6.25;;;;;26.30;49.63;101178.63;5072623;27;45913;-71
2023/06/21 07:45:54;;;;;;;;;9.25;7.00;;;;;26.52;50.32;101205.13;5074841;27;45449;-70
2023/06/21 07:48:20;;;;;;;;;9.00;8.00;;;;;26.57;50.00;101195.88;5071990;27;45380;-70
2023/06/21 07:50:46;;;;;;;;;7.00;6.25;;;;;26.57;50.18;101193.19;5074356;27;45457;-70
2023/06/21 07:53:11;;;;;;;;;7.00;7.00;;;;;26.69;50.31;101201.50;5076407;27;45415;-71
2023/06/21 07:55:37;;;;;;;;;10.00;6.25;;;;;26.74;50.02;101199.41;5074474;28;45452;-70
2023/06/21 07:58:02;;;;;;;;;8.25;8.25;;;;;26.69;49.72;101196.13;5073625;27;45912;-70
2023/06/21 08:00:28;;;;;;;;;9.50;8.25;;;;;26.80;49.90;101204.44;5073201;28;45810;-70
2023/06/21 08:02:54;;;;;;;;;9.25;9.25;;;;;26.84;49.80;101197.94;5074049;28;45466;-71
2023/06/21 08:05:20;;;;;;;;;12.50;7.25;;;;;26.93;49.64;101204.56;5076088;28;45732;-69
2023/06/21 08:07:46;;;;;;;;;7.50;7.50;;;;;26.93;49.27;101197.34;5076637;28;45467;-70
2023/06/21 08:10:12;;;;;;;;;8.00;7.75;;;;;26.99;49.15;101207.75;5076229;28;45564;-71
2023/06/21 08:12:38;;;;;;;;;8.00;8.00;;;;;27.01;48.67;101205.84;5072977;28;45389;-71
2023/06/21 08:15:05;;;;;;;;;7.50;6.75;;;;;27.06;48.85;101225.25;5073368;28;45394;-71
2023/06/21 08:17:30;;;;;;;;;7.25;7.25;;;;;27.09;48.57;101224.19;5073502;27;46192;-72
2023/06/21 08:19:56;;;;;;;;;9.50;7.25;;;;;27.01;48.73;101221.97;5073815;28;45346;-71
2023/06/21 08:22:25;;;;;;;;;7.00;7.00;;;;;27.04;48.59;101229.84;5077750;28;45321;-71
2023/06/21 08:24:53;;;;;;;;;11.00;8.00;;;;;26.83;48.39;101199.72;5079048;27;45345;-71
2023/06/21 08:27:19;;;;;;;;;8.25;5.25;;;;;26.63;47.86;101198.22;5078409;27;46030;-71
2023/06/21 08:29:47;;;;;;;;;8.75;8.75;;;;;26.63;48.18;101213.47;5078496;27;45485;-71
2023/06/21 08:32:12;;;;;;;;;9.50;7.25;;;;;26.54;47.82;101216.69;5077719;28;45491;-72
2023/06/21 08:34:38;;;;;;;;;9.75;9.75;;;;;26.36;48.57;101191.69;5074461;27;45424;-72
2023/06/21 08:37:04;;;;;;;;;9.25;7.50;;;;;26.63;47.66;101217.03;5075222;27;46383;-72
2023/06/21 08:39:29;;;;;;;;;9.25;7.00;;;;;26.80;47.89;101221.41;5074771;28;45691;-73
2023/06/21 08:41:55;;;;;;;;;5.50;5.50;;;;;26.97;47.70;101228.47;5074306;28;45381;-70
2023/06/21 08:44:21;;;;;;;;;6.25;6.25;;;;;27.12;47.28;101229.38;5073039;28;45562;-69
2023/06/21 08:46:49;;;;;;;;;8.50;8.50;;;;;27.26;47.57;101233.97;5073563;27;45490;-72
2023/06/21 08:49:27;;;;;;;;;7.00;7.00;;;;;27.26;47.15;101204.38;5072604;28;45392;-71
2023/06/21 08:52:03;;;;;;;;;6.75;6.75;;;;;27.55;46.01;101228.63;5074726;27;45409;-71
2023/06/21 08:54:35;;;;;;;;;10.25;9.00;;;;;27.60;46.26;101227.41;5074875;27;45863;-71
2023/06/21 08:57:15;;;;;;;;;8.75;8.75;;;;;27.66;46.55;101229.72;5073821;27;45440;-70
2023/06/21 09:00:11;;;;;;;;;11.75;9.00;;;;;27.63;46.55;101224.53;5074016;27;45426;-71
2023/06/21 09:03:12;;;;;;;;;10.25;10.00;;;;;27.59;46.26;101233.75;5105045;27;45571;-71
2023/06/21 09:06:01;;;;;;;;;12.00;11.00;;;;;27.68;46.00;101243.06;5064845;27;45496;-71
2023/06/21 09:08:26;;;;;;;;;8.00;8.00;;;;;27.69;45.39;101232.22;5071369;27;46270;-71
2023/06/21 09:11:11;;;;;;;;;7.25;7.25;;;;;27.55;45.42;101234.03;5069335;27;45613;-71
2023/06/21 09:13:38;;;;;;;;;11.00;9.00;;;;;27.47;45.37;101223.72;5101551;27;45397;-71
2023/06/21 09:16:14;;;;;;;;;10.00;9.00;;;;;27.50;45.49;101228.91;5072090;27;45495;-70
2023/06/21 09:18:46;;;;;;;;;12.25;9.50;;;;;27.52;45.57;101236.91;5075091;28;45970;-70
2023/06/21 09:21:12;;;;;;;;;7.00;6.75;;;;;27.37;45.48;101225.25;5074132;28;45458;-71
2023/06/21 09:23:39;;;;;;;;;12.25;9.00;;;;;27.48;45.48;101239.78;5070734;28;45346;-72
2023/06/21 09:26:06;;;;;;;;;7.75;7.75;;;;;27.55;45.44;101234.03;5079956;27;45701;-71
2023/06/21 09:28:32;;;;;;;;;10.00;10.00;;;;;27.57;45.46;101227.59;5107609;27;47144;-71
2023/06/21 09:30:58;;;;;;;;;8.75;8.00;;;;;27.55;45.29;101229.53;5074588;28;45472;-72
2023/06/21 09:33:25;;;;;;;;;7.00;7.00;;;;;27.48;45.89;101226.34;5071729;28;45909;-71
2023/06/21 09:35:50;;;;;;;;;8.00;6.00;;;;;27.56;46.44;101215.09;5074096;28;45460;-70
2023/06/21 09:38:37;;;;;;;;;7.50;7.50;;;;;27.80;45.89;101228.84;5077035;28;46020;-71
2023/06/21 09:41:06;;;;;;;;;9.00;7.50;;;;;27.84;46.15;101230.44;5074603;27;45490;-72
2023/06/21 09:43:32;;;;;;;;;9.00;8.25;;;;;27.82;46.37;101243.09;5065710;27;45780;-72
2023/06/21 09:46:07;;;;;;;;;7.50;7.25;;;;;27.72;46.01;101231.16;5092297;27;45420;-70
2023/06/21 09:48:34;;;;;;;;;7.75;7.75;;;;;27.77;45.71;101236.28;5077999;28;46785;-72
2023/06/21 09:51:05;;;;;;;;;9.50;7.75;;;;;27.87;45.90;101227.53;5081297;27;45821;-71
2023/06/21 09:53:35;;;;;;;;;8.00;7.25;;;;;28.10;45.73;101242.25;5076631;27;45556;-71
2023/06/21 09:56:04;;;;;;;;;10.50;10.25;;;;;28.25;43.33;101243.09;5077014;27;45314;-71
2023/06/21 09:58:34;;;;;;;;;13.00;11.50;;;;;28.27;43.91;101243.00;5075153;28;45495;-71
2023/06/21 10:01:06;;;;;;;;;10.75;9.00;;;;;28.15;44.10;101233.00;5076396;27;45953;-72
2023/06/21 10:03:33;;;;;;;;;8.50;8.50;;;;;28.13;44.54;101242.03;5075232;28;45408;-72
2023/06/21 10:06:01;;;;;;;;;7.25;7.25;;;;;28.03;45.17;101226.59;5077283;27;45467;-72
2023/06/21 10:08:33;;;;;;;;;8.50;8.50;;;;;28.04;45.46;101237.25;5079827;28;46015;-71
2023/06/21 10:11:03;;;;;;;;;12.00;10.00;;;;;27.94;45.38;101221.78;5076676;28;45503;-73
2023/06/21 10:13:31;;;;;;;;;9.00;9.00;;;;;27.94;45.22;101240.63;5075344;28;45527;-72
2023/06/21 10:16:00;;;;;;;;;9.75;8.25;;;;;27.91;45.26;101233.59;5076981;27;45488;-71
2023/06/21 10:18:26;;;;;;;;;10.25;8.75;;;;;27.93;44.76;101239.78;5075068;28;45714;-70
2023/06/21 10:20:55;;;;;;;;;8.50;8.50;;;;;27.86;44.20;101233.91;5076177;27;45489;-71
2023/06/21 10:23:23;;;;;;;;;9.50;8.25;;;;;27.84;44.15;101226.88;5075091;28;45498;-71
2023/06/21 10:25:50;;;;;;;;;12.00;9.25;;;;;27.97;43.97;101235.03;5076217;27;45478;-71
2023/06/21 10:28:19;;;;;;;;;12.50;8.50;;;;;28.07;43.97;101229.00;5075670;27;45552;-71
2023/06/21 10:30:50;;;;;;;;;10.25;9.00;;;;;28.07;43.76;101218.22;5076270;27;45742;-72
2023/06/21 10:33:17;;;;;;;;;10.75;9.75;;;;;28.11;43.02;101237.72;5076615;27;45535;-71
2023/06/21 10:35:48;;;;;;;;;8.50;8.50;;;;;27.68;43.20;101179.34;5079187;28;45459;-71
2023/06/21 10:38:32;;;;;;;;;11.25;10.75;;;;;28.00;43.82;101224.06;5073867;28;46573;-72
2023/06/21 10:40:59;;;;;;;;;8.25;8.25;;;;;27.91;44.16;101204.84;5079260;28;45558;-71
2023/06/21 10:43:27;;;;;;;;;9.25;7.75;;;;;28.05;44.06;101224.66;5078913;28;45472;-72
2023/06/21 10:45:55;;;;;;;;;8.00;8.00;;;;;28.22;44.02;101234.34;5112016;27;45414;-72
2023/06/21 10:48:21;;;;;;;;;13.00;11.00;;;;;28.41;42.75;101223.25;5080009;28;45382;-72
2023/06/21 10:50:48;;;;;;;;;8.25;7.75;;;;;28.54;43.12;101221.50;5078810;28;45338;-72
2023/06/21 10:53:17;;;;;;;;;11.50;10.50;;;;;28.67;42.20;101225.13;5080141;27;45483;-72
2023/06/21 10:55:43;;;;;;;;;14.75;10.25;;;;;28.83;42.17;101226.78;5078851;28;45460;-72
2023/06/21 10:58:10;;;;;;;;;10.00;9.25;;;;;28.91;42.35;101222.59;5073767;28;46815;-72
2023/06/21 11:00:36;;;;;;;;;8.00;8.00;;;;;28.98;42.10;101222.19;5074227;28;45727;-71
2023/06/21 11:03:02;;;;;;;;;13.00;10.00;;;;;28.87;41.69;101213.00;5075155;27;45440;-71
2023/06/21 11:05:30;;;;;;;;;9.00;7.25;;;;;28.96;41.44;101233.09;5074404;28;45414;-71
2023/06/21 11:07:58;;;;;;;;;8.00;7.00;;;;;28.89;42.99;101234.47;5075633;28;46250;-72
2023/06/21 11:10:49;;;;;;;;;9.00;7.80;;;;;28.87;42.49;101226.47;5075325;28;45346;-71
2023/06/21 11:13:17;;;;;;;;;7.75;7.75;;;;;28.84;41.59;101220.44;5075077;28;45990;-73
2023/06/21 11:15:46;;;;;;;;;9.50;9.50;;;;;28.83;41.39;101224.97;5066767;27;45384;-72
2023/06/21 11:18:19;;;;;;;;;13.50;11.00;;;;;28.82;40.33;101239.41;5079535;27;46407;-72
2023/06/21 11:20:47;;;;;;;;;10.50;10.25;;;;;28.63;41.10;101218.19;5072436;28;45447;-72
2023/06/21 11:23:25;;;;;;;;;10.50;9.75;;;;;28.59;41.84;101226.59;5070965;28;45458;-73
2023/06/21 11:26:13;;;;;;;;;10.50;10.50;;;;;28.34;41.12;101193.16;5073995;27;45675;-71